Hastings On Hudson, New York
Current Conditions -  °F | °C
As of 10:56 AM on Wednesday 26 Nov 2014 (Local Time) from KHPN Reporting Station
Light Snow Light Snow  
Wind Chill: 33°   Ceiling: 300
Heat Index: 33°   Visibility: 1mi
Dew Point: 32°   Wind: 3mph
Humidity: 96%   Direction: 350°N
Pressure: 30.11"   Gusts: NA
Location:  40.99°N, 73.87°W
Report Text: KHPN 261556Z 35003KT 1SM R16/P6000FT -SN BR VV003 01/00 A3011 RMK AO2 RAE52 SLP200 P0010 T00060000
Loading
Personal Weather Stations






























Interactive Weather Map New forecast layout! Learn more

10-Day Weather Forecast

Advertisements
Track Severe Weather on mobile